createdAt,value
2022-08-29T00:02:58.616Z,100852.44
2022-08-29T00:08:02.124Z,100854.75
2022-08-29T00:13:05.647Z,100855.78
2022-08-29T00:18:07.330Z,100853.59
2022-08-29T00:23:09.447Z,100846.03
2022-08-29T00:28:11.310Z,100850.13
2022-08-29T00:33:13.094Z,100843.56
2022-08-29T00:38:19.162Z,100850.06
2022-08-29T00:43:24.384Z,100866.72
2022-08-29T00:48:25.961Z,100863.91
2022-08-29T00:53:36.870Z,100855.56
2022-08-29T00:58:45.519Z,100861.03
2022-08-29T01:03:47.271Z,100869.69
2022-08-29T01:08:49.300Z,100874.06
2022-08-29T01:14:00.243Z,100874.72
2022-08-29T01:19:10.839Z,100878.59
2022-08-29T01:24:15.111Z,100873.22
2022-08-29T01:29:17.085Z,100870.06
2022-08-29T01:34:20.285Z,100871.75
2022-08-29T01:39:25.601Z,100872.06
2022-08-29T01:44:27.103Z,100871.28
2022-08-29T01:49:28.792Z,100880.47
2022-08-29T01:54:31.140Z,100875.25
2022-08-29T01:59:33.239Z,100887.19
2022-08-29T02:04:35.321Z,100889.19
2022-08-29T02:09:36.916Z,100902.91
2022-08-29T02:14:38.460Z,100892.47
2022-08-29T02:19:40.499Z,100905.19
2022-08-29T02:24:42.758Z,100896.53
2022-08-29T02:29:44.221Z,100896.13
2022-08-29T02:34:47.786Z,100892.63
2022-08-29T02:39:50.117Z,100889.44
2022-08-29T02:44:51.706Z,100892.53
2022-08-29T02:49:53.258Z,100893.22
2022-08-29T02:54:55.375Z,100892.97
2022-08-29T02:59:57.194Z,100906.50
2022-08-29T03:04:58.671Z,100906.38
2022-08-29T03:10:00.112Z,100896.44
2022-08-29T03:15:02.312Z,100894.63
2022-08-29T03:20:04.756Z,100892.66
2022-08-29T03:25:07.046Z,100896.88
2022-08-29T03:30:11.872Z,100885.13
2022-08-29T03:35:14.125Z,100882.44
2022-08-29T03:40:17.007Z,100888.22
2022-08-29T03:45:19.686Z,100886.94
2022-08-29T03:50:21.365Z,100890.97
2022-08-29T03:55:22.901Z,100892.81
2022-08-29T04:00:24.613Z,100889.59
2022-08-29T04:05:26.447Z,100898.16
2022-08-29T04:10:31.494Z,100892.53
2022-08-29T04:15:33.100Z,100892.25
2022-08-29T04:20:39.413Z,100897.56
2022-08-29T04:25:44.068Z,100899.94
2022-08-29T04:30:51.857Z,100912.19
2022-08-29T04:35:54.383Z,100906.59
2022-08-29T04:40:55.833Z,100905.66
2022-08-29T04:45:57.535Z,100903.72
2022-08-29T04:51:01.478Z,100910.16
2022-08-29T04:56:06.412Z,100918.13
2022-08-29T05:01:11.741Z,100921.75
2022-08-29T05:06:15.088Z,100916.69
2022-08-29T05:11:23.001Z,100917.53
2022-08-29T05:16:24.666Z,100930.13
2022-08-29T05:21:35.229Z,100927.22
2022-08-29T05:26:43.214Z,100922.00
2022-08-29T05:31:45.592Z,100932.06
2022-08-29T05:36:47.294Z,100930.84
2022-08-29T05:41:48.749Z,100919.47
2022-08-29T05:46:50.584Z,100932.03
2022-08-29T05:51:53.483Z,100920.28
2022-08-29T05:56:54.984Z,100929.53
2022-08-29T06:01:56.556Z,100929.56
2022-08-29T06:06:58.095Z,100928.00
2022-08-29T06:11:59.933Z,100931.78
2022-08-29T06:17:02.077Z,100932.19
2022-08-29T06:22:09.641Z,100940.84
2022-08-29T06:27:12.209Z,100940.72
2022-08-29T06:32:13.689Z,100945.38
2022-08-29T06:37:15.379Z,100955.50
2022-08-29T06:42:16.839Z,100949.44
2022-08-29T06:47:18.398Z,100948.81
2022-08-29T06:52:19.878Z,100957.94
2022-08-29T06:57:21.484Z,100954.50
2022-08-29T07:02:23.005Z,100951.56
2022-08-29T07:07:24.532Z,100945.63
2022-08-29T07:12:27.130Z,100958.66
2022-08-29T07:17:30.012Z,100953.00
2022-08-29T07:22:34.758Z,100948.94
2022-08-29T07:27:36.337Z,100950.66
2022-08-29T07:32:37.898Z,100943.28
2022-08-29T07:37:39.811Z,100945.38
2022-08-29T07:42:41.278Z,100940.06
2022-08-29T07:47:42.726Z,100930.59
2022-08-29T07:52:44.246Z,100929.56
2022-08-29T07:57:45.714Z,100923.16
2022-08-29T08:02:47.265Z,100926.91
2022-08-29T08:07:49.103Z,100927.00
2022-08-29T08:12:56.930Z,100926.53
2022-08-29T08:17:58.427Z,100926.59
2022-08-29T08:23:00.180Z,100926.44
2022-08-29T08:28:01.731Z,100927.09
2022-08-29T08:33:03.531Z,100926.63
2022-08-29T08:38:06.650Z,100934.94
2022-08-29T08:43:09.742Z,100929.59
2022-08-29T08:48:22.664Z,100930.16
2022-08-29T08:53:31.859Z,100935.34
2022-08-29T08:58:52.249Z,100930.59
2022-08-29T09:04:15.716Z,100932.44
2022-08-29T09:09:28.528Z,100928.47
2022-08-29T09:14:45.905Z,100935.19
2022-08-29T09:19:47.651Z,100933.06
2022-08-29T09:24:54.732Z,100919.28
2022-08-29T09:30:07.927Z,100924.88
2022-08-29T09:35:21.551Z,100928.28
2022-08-29T09:40:23.270Z,100925.13
2022-08-29T09:45:25.607Z,100928.34
2022-08-29T09:50:27.164Z,100927.38
2022-08-29T09:55:35.532Z,100921.16
2022-08-29T10:00:40.486Z,100913.97
2022-08-29T10:05:44.345Z,100905.63
2022-08-29T10:10:52.645Z,100900.41
2022-08-29T10:16:19.928Z,100899.94
2022-08-29T10:21:33.593Z,100895.59
2022-08-29T10:27:09.461Z,100895.63
2022-08-29T10:32:29.258Z,100885.53
2022-08-29T10:37:57.662Z,100880.34
2022-08-29T10:43:23.507Z,100873.19
2022-08-29T10:48:36.846Z,100863.06
2022-08-29T10:53:42.183Z,100859.59
2022-08-29T10:59:12.256Z,100852.38
2022-08-29T11:04:26.009Z,100850.19
2022-08-29T11:10:11.697Z,100839.59
2022-08-29T11:15:39.071Z,100834.72
2022-08-29T11:20:51.836Z,100843.56
2022-08-29T11:25:53.635Z,100842.06
2022-08-29T11:31:24.619Z,100835.72
2022-08-29T11:37:01.310Z,100833.50
2022-08-29T11:42:08.031Z,100830.50
2022-08-29T11:47:40.535Z,100829.50
2022-08-29T11:52:53.911Z,100821.88
2022-08-29T11:58:07.917Z,100816.75
2022-08-29T12:03:33.134Z,100793.75
2022-08-29T12:08:45.910Z,100795.41
2022-08-29T12:13:47.360Z,100797.53
2022-08-29T12:18:56.385Z,100789.25
2022-08-29T12:23:58.375Z,100786.56
2022-08-29T12:29:01.886Z,100777.25
2022-08-29T12:34:29.506Z,100769.97
2022-08-29T12:39:43.677Z,100765.81
2022-08-29T12:44:48.669Z,100760.00
2022-08-29T12:49:54.789Z,100750.41
2022-08-29T12:54:58.885Z,100739.66
2022-08-29T13:00:05.217Z,100737.75
2022-08-29T13:05:25.427Z,100732.78
2022-08-29T13:10:29.939Z,100733.81
2022-08-29T13:15:33.239Z,100730.28
2022-08-29T13:20:37.969Z,100724.28
2022-08-29T13:26:02.118Z,100722.41
2022-08-29T13:31:22.881Z,100724.88
2022-08-29T13:36:27.355Z,100720.28
2022-08-29T13:41:28.897Z,100716.66
2022-08-29T13:46:30.860Z,100708.97
2022-08-29T13:51:32.332Z,100705.69
2022-08-29T13:56:33.915Z,100698.47
2022-08-29T14:06:58.324Z,100701.94
2022-08-29T14:12:00.552Z,100705.94
2022-08-29T14:17:02.051Z,100700.91
2022-08-29T14:22:03.720Z,100692.88
2022-08-29T14:27:05.607Z,100686.22
2022-08-29T14:32:07.175Z,100688.28
2022-08-29T14:37:08.686Z,100674.16
2022-08-29T14:42:10.253Z,100672.22
2022-08-29T14:47:11.849Z,100684.84
2022-08-29T14:52:13.419Z,100671.59
2022-08-29T14:57:14.939Z,100665.31
2022-08-29T15:02:18.054Z,100654.03
2022-08-29T15:07:19.593Z,100661.78
2022-08-29T15:12:21.058Z,100652.69
2022-08-29T15:17:24.443Z,100649.59
2022-08-29T15:22:26.110Z,100654.72
2022-08-29T15:27:27.929Z,100649.47
2022-08-29T15:32:29.781Z,100643.56
2022-08-29T15:37:31.296Z,100646.94
2022-08-29T15:42:34.627Z,100635.72
2022-08-29T15:47:37.033Z,100629.09
2022-08-29T15:52:39.283Z,100633.31
2022-08-29T15:57:52.457Z,100641.56
2022-08-29T16:02:55.586Z,100635.19
2022-08-29T16:07:57.390Z,100633.31
2022-08-29T16:12:59.652Z,100625.63
2022-08-29T16:18:02.141Z,100621.91
2022-08-29T16:23:04.281Z,100609.69
2022-08-29T16:28:06.158Z,100616.38
2022-08-29T16:33:07.861Z,100618.81
2022-08-29T16:38:10.204Z,100619.44
2022-08-29T16:43:11.690Z,100620.00
2022-08-29T16:48:15.591Z,100619.47
2022-08-29T16:53:17.343Z,100618.03
2022-08-29T16:58:18.807Z,100613.88
2022-08-29T17:03:20.504Z,100609.94
2022-08-29T17:08:22.053Z,100601.03
2022-08-29T17:13:23.714Z,100608.50
2022-08-29T17:18:25.189Z,100615.31
2022-08-29T17:23:27.545Z,100607.22
2022-08-29T17:28:29.337Z,100618.44
2022-08-29T17:33:31.515Z,100615.69
2022-08-29T17:38:33.680Z,100619.41
2022-08-29T17:43:36.787Z,100624.19
2022-08-29T17:48:38.266Z,100623.75
2022-08-29T17:53:40.327Z,100625.81
2022-08-29T17:58:42.282Z,100626.84
2022-08-29T18:03:44.586Z,100637.38
2022-08-29T18:08:48.003Z,100632.09
2022-08-29T18:13:50.550Z,100639.69
2022-08-29T18:18:52.077Z,100640.81
2022-08-29T18:23:53.620Z,100643.06
2022-08-29T18:28:55.571Z,100646.50
2022-08-29T18:34:00.566Z,100654.28
2022-08-29T18:39:04.611Z,100657.63
2022-08-29T18:44:06.779Z,100654.09
2022-08-29T18:49:08.312Z,100662.72
2022-08-29T18:54:17.445Z,100675.59
2022-08-29T18:59:20.483Z,100679.00
2022-08-29T19:04:25.315Z,100682.94
2022-08-29T19:09:27.012Z,100682.47
2022-08-29T19:14:28.499Z,100697.69
2022-08-29T19:19:30.132Z,100702.03
2022-08-29T19:24:33.825Z,100703.38
2022-08-29T19:29:35.419Z,100705.94
2022-08-29T19:34:36.913Z,100710.13
2022-08-29T19:39:38.518Z,100713.09
2022-08-29T19:44:40.028Z,100712.38
2022-08-29T19:49:45.298Z,100715.88
2022-08-29T19:54:47.011Z,100708.22
2022-08-29T19:59:51.223Z,100704.94
2022-08-29T20:04:52.861Z,100707.38
2022-08-29T20:09:54.305Z,100709.31
2022-08-29T20:14:55.812Z,100712.59
2022-08-29T20:19:57.555Z,100719.97
2022-08-29T20:24:59.042Z,100719.00
2022-08-29T20:30:00.669Z,100734.47
2022-08-29T20:35:02.421Z,100739.00
2022-08-29T20:40:04.690Z,100743.81
2022-08-29T20:45:07.133Z,100753.91
2022-08-29T20:50:08.852Z,100751.69
2022-08-29T20:55:10.293Z,100748.63
2022-08-29T21:00:12.437Z,100749.19
2022-08-29T21:05:13.876Z,100756.38
2022-08-29T21:10:15.325Z,100758.75
2022-08-29T21:15:16.862Z,100758.91
2022-08-29T21:20:18.458Z,100755.88
2022-08-29T21:25:19.994Z,100759.72
2022-08-29T21:30:22.031Z,100757.09
2022-08-29T21:35:23.755Z,100743.78
2022-08-29T21:40:25.246Z,100745.31
2022-08-29T21:45:27.420Z,100755.47
2022-08-29T21:50:28.911Z,100760.69
2022-08-29T21:55:30.379Z,100761.88
2022-08-29T22:00:35.338Z,100763.53
2022-08-29T22:05:37.625Z,100760.69
2022-08-29T22:10:42.118Z,100773.03
2022-08-29T22:15:43.692Z,100778.59
2022-08-29T22:20:46.882Z,100780.53
2022-08-29T22:25:48.381Z,100776.50
2022-08-29T22:30:49.926Z,100778.16
2022-08-29T22:35:51.409Z,100787.13
2022-08-29T22:40:52.958Z,100800.53
2022-08-29T22:45:54.711Z,100804.84
2022-08-29T22:50:58.556Z,100789.59
2022-08-29T22:56:00.189Z,100794.09
2022-08-29T23:01:02.619Z,100794.75
2022-08-29T23:06:04.230Z,100794.94
2022-08-29T23:11:05.798Z,100787.84
2022-08-29T23:16:07.387Z,100791.03
2022-08-29T23:21:09.095Z,100794.63
2022-08-29T23:26:10.718Z,100788.31
2022-08-29T23:31:13.679Z,100784.75
2022-08-29T23:36:15.177Z,100787.59
2022-08-29T23:41:16.869Z,100788.25
2022-08-29T23:46:19.723Z,100790.78
2022-08-29T23:51:21.738Z,100798.56
2022-08-29T23:56:24.229Z,100789.78
